Аэропорт: Иркутск. Иркутск

ICAO: UIII

METAR:
2018/11/19 10:00
UIII 191000Z 11003MPS CAVOK M15/M18 Q1025 R30/820350 NOSIG RMK QFE723/0965
METAR:
2018/11/19 09:21
TAF UIII 190800Z 1909/2009 VRB01MPS 3100 BR FU SCT003 
      TEMPO 1909/2003 0300 FZFG VV001 
      BECMG 2004/2006 BKN011CB